HELX  Luxor International Airport

Add Bookmark

Luxor, Egypt

Status IATA
Operational LXR
Latitude Longitude
25° 40' 15" N 32° 42' 23" E
25.671000 32.706600
Local (DST + 2) UTC (GMT + 2)
Dec 22, 2014 03:30 Dec 22, 2014 13:30
Sunrise-Sunset Local UTC
Begin Civil Twilight 06:05 04:05
Sunrise 06:30 04:30
Sunset 05:05 15:05
End Civil Twilight 05:30 15:30

Current Weather

METAR Observed VFR
HELX 221300Z 33005KT CAVOK 22/06 Q1017 NOSIG Mon, Dec 22, 2014 @ 13:00 UTC
(30 Minutes ago)
Visual Flight Rules
Wind Visibility Clouds Conditions
330° at 5 knots (9 kph) 10 km or more
  • Clear skies
  • No significant weather
Temperatures Readings Precipitation
Current Temp 22°C (72°F)
Dewpoint 6°C (43°F)
Humidity 36%
Altimeter 30.03"Hg
Sea Level Pressure 1017mb
Field Elevation 288.71'
None Recorded

Forecast Weather

TAF
TAF HELX 221100Z 2212/2318 31007KT CAVOK
From To
Mon, Dec 22, 2014 @ 12:00 UTC Tue, Dec 23, 2014 @ 18:00 UTC
Wind Visibility Conditions
310° at 7 knots (13 kph) 10 km or more
  • No significant weather

24 Hour Weather History

Loading
-

24 Hour Weather Graphs

Loading
-

CheckWX.com is intended as a tool to help pilots better visualize weather data. It is not intended as a substitute for an official weather briefing obtained from a Flight Service Station. CheckWX.com does not meet the FAA requirements for an official pre-flight weather briefing. Therefore, it's important that pilots still call and obtain an official FSS pre-flight weather briefing.